createdAt,value
2018-11-21T00:01:14.881Z,48.13
2018-11-21T00:03:43.675Z,42.43
2018-11-21T00:06:12.195Z,45.60
2018-11-21T00:08:40.612Z,43.03
2018-11-21T00:11:09.041Z,35.33
2018-11-21T00:13:37.687Z,45.30
2018-11-21T00:16:06.520Z,42.57
2018-11-21T00:18:35.168Z,44.47
2018-11-21T00:21:03.596Z,44.67
2018-11-21T00:23:32.220Z,35.93
2018-11-21T00:26:01.032Z,41.70
2018-11-21T00:28:30.460Z,44.83
2018-11-21T00:30:59.068Z,45.00
2018-11-21T00:33:27.789Z,50.60
2018-11-21T00:35:56.507Z,42.73
2018-11-21T00:38:25.214Z,38.07
2018-11-21T00:40:53.726Z,42.23
2018-11-21T00:43:22.353Z,31.17
2018-11-21T00:45:51.535Z,39.53
2018-11-21T00:48:20.247Z,41.87
2018-11-21T00:50:48.846Z,34.50
2018-11-21T00:53:17.268Z,37.57
2018-11-21T00:55:45.698Z,48.47
2018-11-21T00:58:14.339Z,42.10
2018-11-21T01:00:43.060Z,30.90
2018-11-21T01:03:11.766Z,41.23
2018-11-21T01:05:40.488Z,42.80
2018-11-21T01:08:08.996Z,39.80
2018-11-21T01:10:37.960Z,47.03
2018-11-21T01:13:06.678Z,48.80
2018-11-21T01:15:35.736Z,43.87
2018-11-21T01:18:04.544Z,45.50
2018-11-21T01:20:33.440Z,47.63
2018-11-21T01:23:02.212Z,40.17
2018-11-21T01:25:30.628Z,39.53
2018-11-21T01:27:59.562Z,48.90
2018-11-21T01:30:28.123Z,46.07
2018-11-21T01:32:57.503Z,44.43
2018-11-21T01:35:26.472Z,43.63
2018-11-21T01:37:54.982Z,39.83
2018-11-21T01:40:23.609Z,49.17
2018-11-21T01:42:52.336Z,46.27
2018-11-21T01:45:21.045Z,39.93
2018-11-21T01:47:49.771Z,40.40
2018-11-21T01:50:18.668Z,40.33
2018-11-21T01:52:47.479Z,39.43
2018-11-21T01:55:16.191Z,35.40
2018-11-21T01:57:45.276Z,47.73
2018-11-21T02:00:13.996Z,41.10
2018-11-21T02:02:42.720Z,50.07
2018-11-21T02:05:11.436Z,36.33
2018-11-21T02:07:40.156Z,44.07
2018-11-21T02:10:09.182Z,42.73
2018-11-21T02:12:38.181Z,38.67
2018-11-21T02:15:06.975Z,59.37
2018-11-21T02:17:35.743Z,39.20
2018-11-21T02:20:04.919Z,53.70
2018-11-21T02:22:33.685Z,46.90
2018-11-21T02:25:02.404Z,55.07
2018-11-21T02:27:31.135Z,49.10
2018-11-21T02:29:59.844Z,44.70
2018-11-21T02:32:28.578Z,52.57
2018-11-21T02:34:58.213Z,43.37
2018-11-21T02:37:27.271Z,50.03
2018-11-21T02:39:56.325Z,47.57
2018-11-21T02:42:25.330Z,39.40
2018-11-21T02:44:54.054Z,42.77
2018-11-21T02:47:22.790Z,47.20
2018-11-21T02:49:51.568Z,50.90
2018-11-21T02:52:20.610Z,52.90
2018-11-21T02:54:49.322Z,48.33
2018-11-21T02:57:20.239Z,49.50
2018-11-21T02:59:50.333Z,49.10
2018-11-21T03:02:19.202Z,53.97
2018-11-21T03:04:47.922Z,55.40
2018-11-21T03:07:16.885Z,47.00
2018-11-21T03:09:45.662Z,57.00
2018-11-21T03:12:14.441Z,47.27
2018-11-21T03:14:43.196Z,49.07
2018-11-21T03:17:12.294Z,57.27
2018-11-21T03:19:41.008Z,48.93
2018-11-21T03:22:09.744Z,46.03
2018-11-21T03:24:38.452Z,53.03
2018-11-21T03:27:06.969Z,45.83
2018-11-21T03:29:35.680Z,51.47
2018-11-21T03:32:04.419Z,54.20
2018-11-21T03:34:32.842Z,49.47
2018-11-21T03:37:01.773Z,57.93
2018-11-21T03:39:30.540Z,47.37
2018-11-21T03:41:59.023Z,44.77
2018-11-21T03:44:28.181Z,45.70
2018-11-21T03:46:56.816Z,45.93
2018-11-21T03:49:25.333Z,61.37
2018-11-21T03:51:53.969Z,48.17
2018-11-21T03:54:22.490Z,55.80
2018-11-21T03:56:51.482Z,51.47
2018-11-21T03:59:20.021Z,51.17
2018-11-21T04:01:48.637Z,49.63
2018-11-21T04:04:17.175Z,45.60
2018-11-21T04:06:45.599Z,69.87
2018-11-21T04:09:14.041Z,55.83
2018-11-21T04:11:42.685Z,53.77
2018-11-21T04:14:11.425Z,54.33
2018-11-21T04:16:40.494Z,48.33
2018-11-21T04:19:09.218Z,48.47
2018-11-21T04:21:37.793Z,51.60
2018-11-21T04:24:06.262Z,51.23
2018-11-21T04:26:34.691Z,51.27
2018-11-21T04:29:03.175Z,60.23
2018-11-21T04:31:31.819Z,45.83
2018-11-21T04:34:00.916Z,57.67
2018-11-21T04:36:30.916Z,56.33
2018-11-21T04:39:00.414Z,47.63
2018-11-21T04:41:29.307Z,53.10
2018-11-21T04:43:58.027Z,55.50
2018-11-21T04:46:26.729Z,46.03
2018-11-21T04:48:55.449Z,37.70
2018-11-21T04:51:23.960Z,45.57
2018-11-21T04:53:52.439Z,49.30
2018-11-21T04:56:21.115Z,40.10
2018-11-21T04:58:49.852Z,59.93
2018-11-21T05:01:18.356Z,52.27
2018-11-21T05:03:46.818Z,50.23
2018-11-21T05:06:15.230Z,59.90
2018-11-21T05:08:44.207Z,52.20
2018-11-21T05:11:12.720Z,56.40
2018-11-21T05:13:41.187Z,50.37
2018-11-21T05:16:09.812Z,57.10
2018-11-21T05:18:38.526Z,53.47
2018-11-21T05:21:07.029Z,54.18
2018-11-21T05:23:35.452Z,54.87
2018-11-21T05:26:04.071Z,50.77
2018-11-21T05:28:33.226Z,74.77
2018-11-21T05:31:01.779Z,61.00
2018-11-21T05:33:30.198Z,63.70
2018-11-21T05:35:58.841Z,48.93
2018-11-21T05:38:27.337Z,55.10
2018-11-21T05:40:56.285Z,50.60
2018-11-21T05:43:25.032Z,64.40
2018-11-21T05:45:53.551Z,45.87
2018-11-21T05:48:22.043Z,58.63
2018-11-21T05:50:50.977Z,65.73
2018-11-21T05:53:19.821Z,46.30
2018-11-21T05:55:48.446Z,63.30
2018-11-21T05:58:16.981Z,63.63
2018-11-21T06:00:49.129Z,56.60
2018-11-21T06:03:13.810Z,62.23
2018-11-21T06:05:42.232Z,49.77
2018-11-21T06:08:10.868Z,61.97
2018-11-21T06:10:39.424Z,56.33
2018-11-21T06:13:07.861Z,60.80
2018-11-21T06:15:36.280Z,55.93
2018-11-21T06:18:05.241Z,56.90
2018-11-21T06:20:33.970Z,47.37
2018-11-21T06:23:02.491Z,51.23
2018-11-21T06:25:31.124Z,60.67
2018-11-21T06:27:59.626Z,57.87
2018-11-21T06:30:28.886Z,57.83
2018-11-21T06:32:57.615Z,54.90
2018-11-21T06:35:26.343Z,57.83
2018-11-21T06:37:55.096Z,62.57
2018-11-21T06:40:23.646Z,69.13
2018-11-21T06:42:53.927Z,65.50
2018-11-21T06:45:23.509Z,84.27
2018-11-21T06:47:52.115Z,61.63
2018-11-21T06:50:20.868Z,62.90
2018-11-21T06:52:49.442Z,55.90
2018-11-21T06:55:18.384Z,59.33
2018-11-21T06:57:46.931Z,53.43
2018-11-21T07:00:15.677Z,64.47
2018-11-21T07:02:44.301Z,72.80
2018-11-21T07:05:12.822Z,58.33
2018-11-21T07:07:41.237Z,51.37
2018-11-21T07:10:13.938Z,56.97
2018-11-21T07:12:43.308Z,53.93
2018-11-21T07:15:12.416Z,59.17
2018-11-21T07:17:41.131Z,65.20
2018-11-21T07:20:11.031Z,68.47
2018-11-21T07:22:39.770Z,55.40
2018-11-21T07:25:10.022Z,52.63
2018-11-21T07:27:38.448Z,54.00
2018-11-21T07:30:08.405Z,45.60
2018-11-21T07:32:37.018Z,59.10
2018-11-21T07:35:06.086Z,62.10
2018-11-21T07:37:34.699Z,49.67
2018-11-21T07:40:03.944Z,58.57
2018-11-21T07:42:32.669Z,51.70
2018-11-21T07:45:01.392Z,66.60
2018-11-21T07:47:29.897Z,56.10
2018-11-21T07:49:58.518Z,57.70
2018-11-21T07:52:28.017Z,67.50
2018-11-21T07:54:56.688Z,61.57
2018-11-21T07:57:31.185Z,57.20
2018-11-21T08:00:18.388Z,53.27
2018-11-21T08:02:49.026Z,63.73
2018-11-21T08:05:21.764Z,63.97
2018-11-21T08:08:08.679Z,54.10
2018-11-21T08:10:54.704Z,63.13
2018-11-21T08:13:45.384Z,57.83
2018-11-21T08:16:31.711Z,66.17
2018-11-21T08:19:22.317Z,64.43
2018-11-21T08:22:25.249Z,52.10
2018-11-21T08:25:11.648Z,63.53
2018-11-21T08:27:59.527Z,54.87
2018-11-21T08:30:28.282Z,69.53
2018-11-21T08:32:56.703Z,59.90
2018-11-21T08:35:25.155Z,56.97
2018-11-21T08:37:53.709Z,59.10
2018-11-21T08:40:22.612Z,56.60
2018-11-21T08:42:51.423Z,53.10
2018-11-21T08:45:20.096Z,67.90
2018-11-21T08:47:48.600Z,60.50
2018-11-21T08:50:17.009Z,58.63
2018-11-21T08:52:45.434Z,56.27
2018-11-21T08:55:13.948Z,61.57
2018-11-21T08:57:42.583Z,52.83
2018-11-21T09:00:11.800Z,58.73
2018-11-21T09:02:40.311Z,64.07
2018-11-21T09:05:09.546Z,103.87
2018-11-21T09:07:39.183Z,62.50
2018-11-21T09:10:10.019Z,68.67
2018-11-21T09:12:38.737Z,54.67
2018-11-21T09:15:11.851Z,67.93
2018-11-21T09:17:40.813Z,59.53
2018-11-21T09:20:10.753Z,62.97
2018-11-21T09:22:39.687Z,77.23
2018-11-21T09:25:08.659Z,76.67
2018-11-21T09:27:37.779Z,81.20
2018-11-21T09:30:17.017Z,63.97
2018-11-21T09:32:46.560Z,78.30
2018-11-21T09:35:16.312Z,82.77
2018-11-21T09:37:45.097Z,62.33
2018-11-21T09:40:18.124Z,67.73
2018-11-21T09:42:48.028Z,67.20
2018-11-21T09:45:18.103Z,66.73
2018-11-21T09:47:46.666Z,58.37
2018-11-21T09:50:17.406Z,64.33
2018-11-21T09:52:50.349Z,62.87
2018-11-21T09:55:14.921Z,58.87
2018-11-21T09:57:43.373Z,58.17
2018-11-21T10:00:50.143Z,59.27
2018-11-21T10:03:29.121Z,72.17
2018-11-21T10:05:59.032Z,75.97
2018-11-21T10:08:40.315Z,89.63
2018-11-21T10:11:09.510Z,51.03
2018-11-21T10:13:37.933Z,70.00
2018-11-21T10:16:06.667Z,70.20
2018-11-21T10:18:36.359Z,67.30
2018-11-21T10:21:06.596Z,57.60
2018-11-21T10:23:35.010Z,63.37
2018-11-21T10:26:03.487Z,66.03
2018-11-21T10:28:32.103Z,64.63
2018-11-21T10:31:00.824Z,74.33
2018-11-21T10:33:29.691Z,58.30
2018-11-21T10:35:58.437Z,58.53
2018-11-21T10:38:26.938Z,62.67
2018-11-21T10:40:55.707Z,75.73
2018-11-21T10:43:28.387Z,58.00
2018-11-21T10:45:53.585Z,63.80
2018-11-21T10:48:22.340Z,64.83
2018-11-21T10:50:51.052Z,64.27
2018-11-21T10:53:19.810Z,64.37
2018-11-21T10:55:48.429Z,65.30
2018-11-21T10:58:17.317Z,64.57
2018-11-21T11:01:03.844Z,68.30
2018-11-21T11:03:40.734Z,66.10
2018-11-21T11:06:34.533Z,71.10
2018-11-21T11:09:21.390Z,63.27
2018-11-21T11:12:09.052Z,65.47
2018-11-21T11:14:59.979Z,64.07
2018-11-21T11:17:47.836Z,68.07
2018-11-21T11:20:38.773Z,67.63
2018-11-21T11:23:25.093Z,73.07
2018-11-21T11:26:24.806Z,61.97
2018-11-21T11:29:10.994Z,57.23
2018-11-21T11:31:57.346Z,59.67
2018-11-21T11:34:54.539Z,65.20
2018-11-21T11:37:41.053Z,61.80
2018-11-21T11:40:28.683Z,72.00
2018-11-21T11:43:28.021Z,55.27
2018-11-21T11:46:10.778Z,63.85
2018-11-21T11:48:57.725Z,65.43
2018-11-21T11:51:48.344Z,55.50
2018-11-21T11:54:34.220Z,62.23
2018-11-21T11:57:33.866Z,68.67
2018-11-21T12:00:12.541Z,63.80
2018-11-21T12:02:48.394Z,68.63
2018-11-21T12:05:34.820Z,61.17
2018-11-21T12:08:37.779Z,83.37
2018-11-21T12:11:34.399Z,60.73
2018-11-21T12:14:15.702Z,69.27
2018-11-21T12:17:09.674Z,64.30
2018-11-21T12:20:00.331Z,66.63
2018-11-21T12:22:46.791Z,68.53
2018-11-21T12:25:25.972Z,67.77
2018-11-21T12:28:07.640Z,80.27
2018-11-21T12:30:58.829Z,73.07
2018-11-21T12:33:55.638Z,66.70
2018-11-21T12:36:35.363Z,71.07
2018-11-21T12:39:22.758Z,74.63
2018-11-21T12:42:17.035Z,74.93
2018-11-21T12:45:04.884Z,62.90
2018-11-21T12:48:07.884Z,74.73
2018-11-21T12:50:54.981Z,72.40
2018-11-21T12:53:48.531Z,72.07
2018-11-21T12:56:29.876Z,78.53
2018-11-21T12:59:20.629Z,75.20
2018-11-21T13:01:58.247Z,55.97
2018-11-21T13:04:49.957Z,65.57
2018-11-21T13:07:36.853Z,66.13
2018-11-21T13:10:25.670Z,80.57
2018-11-21T13:13:12.314Z,72.00
2018-11-21T13:15:52.810Z,58.07
2018-11-21T13:18:39.187Z,63.27
2018-11-21T13:21:39.346Z,69.40
2018-11-21T13:24:39.430Z,61.00
2018-11-21T13:27:45.642Z,78.00
2018-11-21T13:30:32.482Z,61.47
2018-11-21T13:33:20.040Z,74.07
2018-11-21T13:35:59.801Z,59.47
2018-11-21T13:38:58.805Z,69.37
2018-11-21T13:41:47.662Z,62.90
2018-11-21T13:44:41.331Z,64.13
2018-11-21T13:47:15.638Z,77.53
2018-11-21T13:50:03.205Z,78.73
2018-11-21T13:52:38.534Z,73.10
2018-11-21T13:55:07.153Z,62.00
2018-11-21T13:57:35.575Z,89.33
2018-11-21T14:00:05.306Z,75.90
2018-11-21T14:02:34.731Z,73.83
2018-11-21T14:05:03.445Z,86.13
2018-11-21T14:07:31.942Z,66.73
2018-11-21T14:10:00.360Z,90.17
2018-11-21T14:12:29.080Z,61.97
2018-11-21T14:14:58.295Z,68.87
2018-11-21T14:17:27.679Z,67.13
2018-11-21T14:19:55.385Z,69.20
2018-11-21T14:22:24.218Z,70.67
2018-11-21T14:24:52.646Z,73.17
2018-11-21T14:27:21.052Z,63.80
2018-11-21T14:29:49.690Z,88.00
2018-11-21T14:32:18.186Z,76.23
2018-11-21T14:34:46.667Z,73.33
2018-11-21T14:37:15.075Z,63.50
2018-11-21T14:39:43.503Z,76.83
2018-11-21T14:42:11.950Z,80.57
2018-11-21T14:44:40.573Z,84.93
2018-11-21T14:47:11.306Z,97.87
2018-11-21T14:49:38.861Z,82.57
2018-11-21T14:52:07.271Z,71.40
2018-11-21T14:54:35.690Z,76.40
2018-11-21T14:57:04.101Z,69.43
2018-11-21T14:59:32.523Z,63.93
2018-11-21T15:02:01.171Z,75.63
2018-11-21T15:04:29.986Z,84.37
2018-11-21T15:06:58.654Z,77.97
2018-11-21T15:09:27.156Z,75.10
2018-11-21T15:11:55.610Z,77.97
2018-11-21T15:14:24.106Z,73.47
2018-11-21T15:16:52.795Z,88.15
2018-11-21T15:19:21.558Z,114.07
2018-11-21T15:21:50.082Z,82.87
2018-11-21T15:24:18.709Z,88.30
2018-11-21T15:26:47.408Z,90.63
2018-11-21T15:29:15.926Z,139.43
2018-11-21T15:31:44.336Z,85.07
2018-11-21T15:34:12.970Z,83.73
2018-11-21T15:36:41.679Z,71.43
2018-11-21T15:39:11.055Z,90.53
2018-11-21T15:41:40.227Z,72.40
2018-11-21T15:44:08.944Z,92.90
2018-11-21T15:46:37.651Z,79.37
2018-11-21T15:49:06.175Z,88.60
2018-11-21T15:51:34.986Z,71.53
2018-11-21T15:54:03.502Z,84.13
2018-11-21T15:56:32.183Z,104.93
2018-11-21T15:59:00.739Z,76.37
2018-11-21T16:01:30.115Z,81.33
2018-11-21T16:03:59.944Z,75.53
2018-11-21T16:06:28.570Z,90.67
2018-11-21T16:08:57.082Z,81.50
2018-11-21T16:11:25.823Z,80.63
2018-11-21T16:13:54.461Z,114.17
2018-11-21T16:16:22.977Z,107.03
2018-11-21T16:18:51.609Z,86.50
2018-11-21T16:21:20.319Z,76.03
2018-11-21T16:23:49.351Z,91.77
2018-11-21T16:26:17.823Z,81.80
2018-11-21T16:28:46.450Z,63.40
2018-11-21T16:31:14.954Z,77.03
2018-11-21T16:33:43.397Z,83.30
2018-11-21T16:36:12.015Z,80.23
2018-11-21T16:38:40.740Z,63.60
2018-11-21T16:41:10.069Z,55.87
2018-11-21T16:43:39.034Z,69.57
2018-11-21T16:46:07.559Z,69.40
2018-11-21T16:48:36.177Z,87.00
2018-11-21T16:51:05.088Z,60.60
2018-11-21T16:53:35.249Z,89.47
2018-11-21T16:56:02.204Z,72.10
2018-11-21T16:58:30.904Z,69.17
2018-11-21T17:00:59.662Z,66.23
2018-11-21T17:03:28.323Z,79.70
2018-11-21T17:05:57.038Z,76.70
2018-11-21T17:08:26.043Z,54.77
2018-11-21T17:10:54.747Z,71.23
2018-11-21T17:13:23.446Z,66.50
2018-11-21T17:15:51.961Z,70.40
2018-11-21T17:18:20.616Z,74.20
2018-11-21T17:20:49.232Z,64.53
2018-11-21T17:23:17.994Z,66.77
2018-11-21T17:25:46.643Z,67.57
2018-11-21T17:28:15.359Z,71.37
2018-11-21T17:30:43.919Z,64.33
2018-11-21T17:33:12.356Z,64.00
2018-11-21T17:35:40.993Z,59.33
2018-11-21T17:38:10.149Z,59.57
2018-11-21T17:40:40.294Z,73.27
2018-11-21T17:43:08.703Z,98.87
2018-11-21T17:45:37.383Z,102.67
2018-11-21T17:48:06.754Z,79.23
2018-11-21T17:50:35.285Z,75.80
2018-11-21T17:53:05.083Z,63.83
2018-11-21T17:55:34.490Z,69.53
2018-11-21T17:58:02.896Z,76.00
2018-11-21T18:00:31.996Z,110.57
2018-11-21T18:03:00.836Z,73.40
2018-11-21T18:05:31.351Z,72.73
2018-11-21T18:08:00.045Z,69.53
2018-11-21T18:10:30.521Z,60.27
2018-11-21T18:12:59.865Z,65.70
2018-11-21T18:15:28.485Z,64.50
2018-11-21T18:17:57.061Z,61.87
2018-11-21T18:20:26.231Z,50.00
2018-11-21T18:22:54.854Z,49.90
2018-11-21T18:25:25.658Z,52.33
2018-11-21T18:27:54.393Z,55.33
2018-11-21T18:30:23.755Z,48.43
2018-11-21T18:32:53.692Z,53.40
2018-11-21T18:35:23.226Z,53.60
2018-11-21T18:37:53.074Z,40.10
2018-11-21T18:40:35.106Z,66.23
2018-11-21T18:43:14.940Z,53.27
2018-11-21T18:45:44.883Z,63.97
2018-11-21T18:48:13.806Z,65.43
2018-11-21T18:50:42.333Z,88.97
2018-11-21T18:53:11.584Z,133.07
2018-11-21T18:55:41.266Z,119.40
2018-11-21T18:58:41.529Z,99.77
2018-11-21T19:01:10.003Z,96.03
2018-11-21T19:03:38.617Z,79.10
2018-11-21T19:06:07.627Z,64.77
2018-11-21T19:08:36.135Z,65.33
2018-11-21T19:11:05.119Z,57.97
2018-11-21T19:13:33.916Z,66.50
2018-11-21T19:16:02.425Z,45.20
2018-11-21T19:18:31.871Z,58.77
2018-11-21T19:21:00.467Z,68.00
2018-11-21T19:23:29.097Z,52.53
2018-11-21T19:25:57.693Z,48.83
2018-11-21T19:28:26.844Z,54.67
2018-11-21T19:30:55.773Z,58.13
2018-11-21T19:33:24.279Z,47.50
2018-11-21T19:35:52.791Z,46.93
2018-11-21T19:38:21.519Z,47.80
2018-11-21T19:40:50.040Z,58.93
2018-11-21T19:43:18.706Z,37.70
2018-11-21T19:45:47.456Z,46.97
2018-11-21T19:48:16.154Z,43.40
2018-11-21T19:50:44.686Z,48.23
2018-11-21T19:53:13.351Z,50.33
2018-11-21T19:55:41.786Z,55.10
2018-11-21T19:58:10.787Z,44.50
2018-11-21T20:00:39.632Z,48.87
2018-11-21T20:03:08.514Z,52.60
2018-11-21T20:05:36.989Z,56.43
2018-11-21T20:08:05.705Z,55.17
2018-11-21T20:10:34.407Z,49.03
2018-11-21T20:13:03.475Z,59.20
2018-11-21T20:15:32.301Z,53.68
2018-11-21T20:18:02.150Z,41.37
2018-11-21T20:20:31.161Z,39.20
2018-11-21T20:23:02.917Z,53.53
2018-11-21T20:25:28.969Z,79.70
2018-11-21T20:27:57.757Z,58.93
2018-11-21T20:30:35.117Z,54.97
2018-11-21T20:33:03.754Z,58.30
2018-11-21T20:35:32.422Z,54.17
2018-11-21T20:38:00.930Z,59.60
2018-11-21T20:40:31.156Z,70.43
2018-11-21T20:42:59.705Z,50.80
2018-11-21T20:45:28.758Z,68.10
2018-11-21T20:47:58.509Z,56.28
2018-11-21T20:50:27.729Z,58.28
2018-11-21T20:52:57.181Z,51.27
2018-11-21T20:55:27.480Z,53.33
2018-11-21T20:57:55.947Z,52.53
2018-11-21T21:00:26.027Z,51.73
2018-11-21T21:02:54.974Z,55.33
2018-11-21T21:05:25.032Z,52.37
2018-11-21T21:07:53.837Z,64.67
2018-11-21T21:10:24.208Z,50.57
2018-11-21T21:12:52.698Z,50.20
2018-11-21T21:15:21.380Z,50.20
2018-11-21T21:17:51.060Z,60.00
2018-11-21T21:20:20.987Z,58.00
2018-11-21T21:22:50.886Z,48.07
2018-11-21T21:25:21.079Z,54.60
2018-11-21T21:27:49.591Z,55.50
2018-11-21T21:30:19.778Z,45.90
2018-11-21T21:32:48.533Z,58.70
2018-11-21T21:35:18.131Z,52.63
2018-11-21T21:37:46.771Z,50.93
2018-11-21T21:40:20.232Z,57.90
2018-11-21T21:42:45.760Z,57.33
2018-11-21T21:45:16.385Z,47.67
2018-11-21T21:47:44.941Z,40.83
2018-11-21T21:50:14.397Z,58.23
2018-11-21T21:52:43.017Z,52.00
2018-11-21T21:55:12.924Z,61.20
2018-11-21T21:57:41.425Z,51.17
2018-11-21T22:00:12.340Z,53.87
2018-11-21T22:02:41.063Z,50.93
2018-11-21T22:05:10.280Z,46.43
2018-11-21T22:07:38.714Z,52.07
2018-11-21T22:10:08.951Z,54.93
2018-11-21T22:12:37.461Z,54.67
2018-11-21T22:15:13.911Z,62.83
2018-11-21T22:17:42.562Z,46.00
2018-11-21T22:20:11.270Z,47.30
2018-11-21T22:22:39.785Z,53.67
2018-11-21T22:25:08.420Z,53.03
2018-11-21T22:27:37.144Z,67.80
2018-11-21T22:30:06.846Z,61.10
2018-11-21T22:32:35.267Z,65.80
2018-11-21T22:35:03.798Z,52.27
2018-11-21T22:37:37.908Z,59.67
2018-11-21T22:40:00.847Z,53.50
2018-11-21T22:42:29.432Z,71.77
2018-11-21T22:44:58.655Z,66.55
2018-11-21T22:47:27.373Z,57.13
2018-11-21T22:49:56.079Z,66.47
2018-11-21T22:52:25.056Z,54.53
2018-11-21T22:54:53.554Z,52.37
2018-11-21T22:57:21.976Z,68.40
2018-11-21T22:59:50.598Z,68.30
2018-11-21T23:02:19.217Z,79.17
2018-11-21T23:04:47.927Z,73.87
2018-11-21T23:07:16.643Z,72.73
2018-11-21T23:09:45.370Z,53.97
2018-11-21T23:12:14.087Z,66.23
2018-11-21T23:14:42.597Z,57.10
2018-11-21T23:17:11.214Z,68.67
2018-11-21T23:19:40.368Z,70.27
2018-11-21T23:22:08.726Z,78.07
2018-11-21T23:24:37.469Z,57.47
2018-11-21T23:27:05.894Z,48.53
2018-11-21T23:29:34.527Z,68.30
2018-11-21T23:32:03.026Z,77.57
2018-11-21T23:34:31.976Z,66.73
2018-11-21T23:37:00.672Z,72.10
2018-11-21T23:39:29.385Z,71.63
2018-11-21T23:41:58.351Z,66.00
2018-11-21T23:44:26.871Z,73.30
2018-11-21T23:46:55.301Z,59.33
2018-11-21T23:49:24.005Z,52.87
2018-11-21T23:51:52.570Z,64.33
2018-11-21T23:54:21.551Z,52.67
2018-11-21T23:57:15.530Z,69.80
2018-11-21T23:59:18.983Z,60.80
